Terminal Aerodrome Forecast
Issued by NWS

Current Version | Previous Version | Graphics & Text | Print | Product List | Glossary On
Versions: 1 2 3 4 5 6 7 8 9 10 11 12 13 14 15 16 17 18 19 20
922
FTUS41 KPBZ 202103 AAA
TAFHLG
TAF AMD
KHLG 202103Z 2021/2118 22008KT P6SM SCT008 OVC040
     FM210600 20003KT 3SM BR OVC008
     FM211200 15004KT P6SM BKN015
     FM211600 18005KT P6SM BKN025=

USA.gov is the U.S. government's official web portal to all federal, state and local government web resources and services.